Manhattan, MT (59741)

2:07 AM MST on January 18, 2017 (GMT -0700)
GRR | | Change Station

Elev 4518 ft 45.91 °N, 111.33 °W | Updated 48 seconds ago

Clear
Clear
23.2 °F
Feels Like 12 °F
N
11.9
Wind Variable Wind from WNW
Gusts 12.3 mph

Today
High -- | Low -- °F
--% Chance of Precip.
Yesterday
High -- | Low -- °F
Precip. -- in
Pressure 30.05 in
Visibility 10.0 miles
Clouds Clear
Windchill 12 °F
Dew Point 4 °F
Humidity 43%
Rainfall 0.00 in
Snow Depth Not available.
8:00 AM 5:11 PM
Waning Gibbous, 65% visible
METAR KBZN 180856Z AUTO 18007KT 10SM CLR M12/M14 A2987 RMK AO2 SLP174 T11171144 56018
Pressure 30.05 in
Visibility 10.0 miles
Clouds Clear
Windchill 12 °F
Dew Point 4 °F
Humidity 43%
Rainfall 0.00 in
Snow Depth Not available.
8:00 AM 5:11 PM
Waning Gibbous, 65% visible
METAR KBZN 180856Z AUTO 18007KT 10SM CLR M12/M14 A2987 RMK AO2 SLP174 T11171144 56018

Get Your Daily Forecast Email!

Thanks for signing up!

Be on the lookout for a verification email in your inbox.

You'll start receiving the daily forecast at 8 AM.

×

10-Day Weather Forecast

Almanac

Astronomy

Jan. 18, 2017 Rise Set
Actual Time
Civil Twilight
Nautical Twilight
Astronomical Twilight
Moon
Length of Visible Light
Length of Day
Tomorrow will be .
, % of the Moon is Illuminated

Today's Extremes

State Highs State Lows

Community

WunderPhotos

Upload Photos

1,962,540 photos uploaded!

WunderBlog® & News

Nearby

Air Quality

  Air Quality AQ Index Pollutant
Not available.

Snow Depth

Station Depth Elevation

Earthquake Activity

City Distance Mag. Time & Date
Minimum magnitude displayed is 2.5.

Coastal Water Temperatures

Place Temperature

Stations

Nearby Weather Stations

Station Location Temp. Windchill Dew Point Humidity Wind Precip. Elev Updated Type
                   

Watches & Warnings

There are currently no watches in effect.